Cayuse, Oregon
Current Conditions -  °F | °C
As of 9:56 AM on Sunday 28 Dec 2014 (Local Time) from KMEH Reporting Station
Moderate Snow Moderate Snow  
Wind Chill: 30°   Ceiling: 900
Heat Index: 30°   Visibility: 0.5mi
Dew Point: 27°   Wind: 3mph
Humidity: 88%   Direction: NA
Pressure: 30.06"   Gusts: NA
Location:  45.68°N, 118.56°W
Report Text: KMEH 281756Z AUTO VRB03KT 1/2SM SN FZFG VV009 M01/M03 A3006 RMK AO2 SLP203 P0005 60035 T10111028 11006 21011 51013 $
Loading
Personal Weather Stations






























Interactive Weather Map New forecast layout! Learn more

10-Day Weather Forecast

Advertisements
Track Severe Weather on mobile